createdAt,value
2017-05-27T00:00:15.531Z,1.12
2017-05-27T00:02:45.592Z,1.50
2017-05-27T00:05:15.614Z,1.28
2017-05-27T00:07:45.419Z,2.18
2017-05-27T00:10:15.532Z,1.66
2017-05-27T00:12:45.725Z,0.96
2017-05-27T00:15:15.959Z,1.26
2017-05-27T00:17:45.963Z,1.10
2017-05-27T00:20:16.053Z,1.16
2017-05-27T00:22:53.048Z,1.10
2017-05-27T00:25:23.414Z,1.10
2017-05-27T00:27:53.421Z,1.48
2017-05-27T00:30:29.673Z,1.22
2017-05-27T00:32:59.687Z,1.30
2017-05-27T00:35:29.898Z,0.92
2017-05-27T00:38:00.151Z,0.94
2017-05-27T00:40:31.839Z,1.14
2017-05-27T00:43:01.256Z,1.46
2017-05-27T00:45:31.688Z,1.32
2017-05-27T00:48:01.154Z,1.20
2017-05-27T00:50:31.502Z,1.26
2017-05-27T00:53:01.631Z,1.06
2017-05-27T00:55:31.794Z,1.56
2017-05-27T00:58:02.025Z,1.36
2017-05-27T01:00:32.359Z,1.20
2017-05-27T01:03:02.461Z,1.26
2017-05-27T01:05:32.809Z,1.44
2017-05-27T01:08:02.782Z,1.30
2017-05-27T01:10:31.994Z,1.28
2017-05-27T01:13:02.228Z,1.00
2017-05-27T01:15:32.394Z,1.06
2017-05-27T01:18:02.523Z,1.28
2017-05-27T01:20:32.798Z,1.20
2017-05-27T01:23:03.023Z,1.00
2017-05-27T01:25:33.385Z,1.64
2017-05-27T01:28:03.620Z,1.08
2017-05-27T01:30:33.824Z,1.34
2017-05-27T01:33:04.250Z,1.00
2017-05-27T01:35:34.460Z,1.30
2017-05-27T01:38:04.808Z,1.20
2017-05-27T01:40:35.682Z,1.72
2017-05-27T01:43:05.827Z,2.60
2017-05-27T01:45:35.853Z,1.32
2017-05-27T01:48:05.937Z,1.10
2017-05-27T01:50:36.087Z,1.50
2017-05-27T01:53:06.486Z,1.48
2017-05-27T01:55:36.688Z,1.36
2017-05-27T01:58:22.754Z,1.18
2017-05-27T02:00:53.010Z,1.18
2017-05-27T02:03:22.898Z,1.16
2017-05-27T02:05:52.979Z,1.20
2017-05-27T02:08:22.952Z,1.40
2017-05-27T02:10:53.224Z,1.32
2017-05-27T02:13:23.465Z,1.68
2017-05-27T02:15:53.826Z,1.36
2017-05-27T02:18:24.008Z,1.36
2017-05-27T02:20:54.269Z,1.66
2017-05-27T02:23:24.582Z,1.14
2017-05-27T02:25:54.837Z,1.60
2017-05-27T02:28:25.020Z,1.20
2017-05-27T02:30:55.325Z,1.36
2017-05-27T02:33:25.577Z,2.46
2017-05-27T02:35:55.386Z,1.56
2017-05-27T02:38:25.500Z,1.56
2017-05-27T02:40:56.264Z,1.56
2017-05-27T02:43:26.305Z,2.02
2017-05-27T02:45:56.508Z,2.02
2017-05-27T02:48:26.879Z,1.58
2017-05-27T02:50:57.048Z,1.42
2017-05-27T02:53:27.317Z,1.32
2017-05-27T02:55:57.655Z,1.38
2017-05-27T02:58:27.261Z,1.74
2017-05-27T03:00:57.436Z,1.44
2017-05-27T03:03:27.554Z,1.84
2017-05-27T03:05:57.989Z,1.64
2017-05-27T03:08:27.842Z,1.84
2017-05-27T03:10:57.968Z,1.58
2017-05-27T03:13:27.818Z,1.40
2017-05-27T03:15:58.191Z,1.80
2017-05-27T03:18:28.470Z,1.62
2017-05-27T03:20:58.652Z,2.00
2017-05-27T03:23:28.909Z,2.14
2017-05-27T03:25:59.179Z,2.18
2017-05-27T03:28:29.519Z,1.92
2017-05-27T03:30:59.638Z,2.00
2017-05-27T03:33:29.827Z,2.02
2017-05-27T03:35:59.801Z,1.78
2017-05-27T03:38:30.095Z,2.00
2017-05-27T03:41:01.575Z,2.00
2017-05-27T03:43:31.816Z,2.58
2017-05-27T03:46:01.948Z,3.02
2017-05-27T03:48:32.260Z,2.92
2017-05-27T03:51:02.291Z,2.74
2017-05-27T03:53:32.611Z,2.10
2017-05-27T03:56:02.865Z,2.54
2017-05-27T03:58:33.264Z,2.12
2017-05-27T04:01:03.244Z,2.68
2017-05-27T04:03:33.443Z,2.30
2017-05-27T04:06:03.618Z,2.66
2017-05-27T04:08:40.126Z,2.52
2017-05-27T04:11:10.390Z,2.36
2017-05-27T04:13:40.445Z,3.18
2017-05-27T04:16:17.738Z,2.80
2017-05-27T04:18:47.916Z,2.64
2017-05-27T04:21:17.595Z,2.88
2017-05-27T04:23:48.001Z,2.86
2017-05-27T04:26:18.128Z,2.62
2017-05-27T04:28:48.136Z,3.08
2017-05-27T04:31:18.077Z,2.92
2017-05-27T04:33:48.017Z,3.20
2017-05-27T04:36:17.278Z,3.14
2017-05-27T04:38:47.617Z,2.62
2017-05-27T04:41:19.189Z,2.00
2017-05-27T04:43:49.454Z,2.40
2017-05-27T04:46:19.778Z,2.28
2017-05-27T04:48:50.037Z,2.66
2017-05-27T04:51:20.497Z,3.08
2017-05-27T04:53:49.915Z,2.30
2017-05-27T04:56:20.242Z,2.68
2017-05-27T04:58:50.326Z,2.46
2017-05-27T05:01:20.403Z,2.76
2017-05-27T05:03:50.688Z,2.60
2017-05-27T05:06:20.265Z,2.68
2017-05-27T05:08:50.406Z,3.02
2017-05-27T05:11:20.551Z,2.94
2017-05-27T05:13:50.884Z,2.68
2017-05-27T05:16:21.031Z,2.70
2017-05-27T05:18:51.602Z,2.24
2017-05-27T05:21:21.841Z,2.44
2017-05-27T05:23:52.029Z,3.02
2017-05-27T05:26:22.156Z,2.32
2017-05-27T05:28:52.310Z,2.88
2017-05-27T05:31:22.489Z,2.62
2017-05-27T05:33:51.678Z,2.78
2017-05-27T05:36:21.791Z,2.36
2017-05-27T05:38:51.897Z,2.70
2017-05-27T05:41:22.624Z,2.92
2017-05-27T05:43:53.648Z,2.60
2017-05-27T05:46:24.041Z,2.50
2017-05-27T05:48:54.358Z,3.08
2017-05-27T05:51:23.621Z,2.86
2017-05-27T05:53:53.829Z,2.40
2017-05-27T05:56:23.765Z,2.64
2017-05-27T05:58:54.005Z,2.66
2017-05-27T06:01:24.125Z,2.60
2017-05-27T06:03:53.956Z,2.60
2017-05-27T06:06:24.302Z,3.08
2017-05-27T06:08:54.512Z,2.74
2017-05-27T06:11:24.857Z,2.72
2017-05-27T06:13:54.235Z,2.48
2017-05-27T06:16:24.214Z,2.56
2017-05-27T06:18:54.474Z,2.92
2017-05-27T06:21:24.870Z,3.20
2017-05-27T06:23:55.201Z,2.72
2017-05-27T06:26:25.247Z,2.68
2017-05-27T06:28:54.519Z,2.96
2017-05-27T06:31:24.744Z,2.62
2017-05-27T06:33:55.520Z,2.72
2017-05-27T06:36:25.808Z,2.28
2017-05-27T06:38:55.367Z,3.14
2017-05-27T06:41:26.674Z,2.62
2017-05-27T06:43:56.815Z,2.98
2017-05-27T06:46:26.054Z,2.92
2017-05-27T06:48:56.267Z,2.80
2017-05-27T06:51:26.460Z,3.50
2017-05-27T06:53:56.451Z,3.62
2017-05-27T06:56:26.549Z,4.20
2017-05-27T06:58:56.891Z,4.86
2017-05-27T07:01:26.303Z,5.80
2017-05-27T07:03:56.718Z,6.96
2017-05-27T07:06:26.071Z,7.02
2017-05-27T07:08:56.603Z,7.84
2017-05-27T07:11:26.971Z,9.50
2017-05-27T07:13:57.438Z,5.30
2017-05-27T07:16:27.588Z,6.32
2017-05-27T07:18:57.555Z,6.68
2017-05-27T07:21:27.702Z,5.34
2017-05-27T07:23:58.208Z,3.86
2017-05-27T07:26:27.603Z,5.50
2017-05-27T07:28:57.958Z,6.90
2017-05-27T07:31:27.901Z,5.18
2017-05-27T07:33:58.203Z,4.38
2017-05-27T07:36:28.596Z,3.66
2017-05-27T07:38:58.661Z,3.86
2017-05-27T07:41:30.530Z,4.48
2017-05-27T07:44:00.468Z,4.24
2017-05-27T07:46:31.365Z,4.98
2017-05-27T07:49:01.551Z,5.08
2017-05-27T07:51:31.710Z,5.30
2017-05-27T07:54:01.881Z,5.22
2017-05-27T07:56:32.055Z,5.62
2017-05-27T07:59:02.424Z,7.20
2017-05-27T08:01:32.827Z,8.16
2017-05-27T08:04:03.234Z,23.44
2017-05-27T08:06:33.215Z,21.86
2017-05-27T08:09:02.531Z,17.72
2017-05-27T08:11:32.841Z,11.82
2017-05-27T08:14:03.140Z,10.48
2017-05-27T08:16:40.570Z,11.06
2017-05-27T08:19:10.001Z,9.20
2017-05-27T08:21:40.186Z,7.18
2017-05-27T08:24:10.481Z,7.02
2017-05-27T08:26:40.748Z,5.84
2017-05-27T08:29:10.992Z,6.46
2017-05-27T08:31:41.409Z,5.94
2017-05-27T08:34:17.872Z,6.12
2017-05-27T08:36:48.139Z,5.66
2017-05-27T08:39:18.057Z,5.46
2017-05-27T08:41:49.659Z,4.78
2017-05-27T08:44:19.951Z,4.72
2017-05-27T08:46:57.396Z,5.70
2017-05-27T08:49:27.377Z,5.04
2017-05-27T08:51:57.486Z,5.42
2017-05-27T08:54:26.773Z,4.70
2017-05-27T08:56:56.645Z,4.72
2017-05-27T08:59:26.944Z,5.38
2017-05-27T09:01:56.375Z,5.32
2017-05-27T09:04:26.616Z,5.34
2017-05-27T09:06:56.759Z,5.22
2017-05-27T09:09:26.765Z,5.36
2017-05-27T09:11:56.955Z,5.00
2017-05-27T09:14:27.320Z,4.74
2017-05-27T09:16:57.463Z,5.02
2017-05-27T09:19:27.727Z,4.40
2017-05-27T09:21:57.875Z,4.60
2017-05-27T09:24:28.026Z,4.10
2017-05-27T09:26:58.267Z,4.52
2017-05-27T09:29:28.412Z,4.74
2017-05-27T09:31:58.545Z,4.98
2017-05-27T09:34:28.463Z,4.56
2017-05-27T09:36:58.607Z,4.60
2017-05-27T09:39:28.571Z,4.26
2017-05-27T09:41:59.989Z,4.98
2017-05-27T09:44:29.951Z,4.24
2017-05-27T09:47:00.147Z,4.36
2017-05-27T09:49:30.150Z,5.16
2017-05-27T09:51:59.783Z,4.80
2017-05-27T09:54:30.175Z,4.68
2017-05-27T09:57:00.061Z,5.08
2017-05-27T09:59:30.173Z,5.30
2017-05-27T10:02:00.538Z,4.70
2017-05-27T10:04:30.545Z,4.96
2017-05-27T10:07:00.090Z,4.92
2017-05-27T10:09:30.473Z,4.80
2017-05-27T10:12:00.802Z,5.24
2017-05-27T10:14:31.017Z,4.92
2017-05-27T10:17:01.186Z,4.80
2017-05-27T10:19:31.228Z,4.80
2017-05-27T10:22:01.274Z,4.94
2017-05-27T10:24:31.513Z,5.48
2017-05-27T10:27:01.691Z,4.66
2017-05-27T10:29:31.865Z,4.86
2017-05-27T10:32:01.326Z,5.48
2017-05-27T10:34:31.672Z,4.90
2017-05-27T10:37:01.234Z,4.92
2017-05-27T10:39:31.122Z,5.62
2017-05-27T10:42:02.305Z,4.82
2017-05-27T10:44:32.338Z,5.46
2017-05-27T10:47:02.416Z,5.58
2017-05-27T10:49:32.392Z,5.72
2017-05-27T10:52:01.754Z,6.00
2017-05-27T10:54:32.033Z,6.48
2017-05-27T10:57:01.970Z,6.44
2017-05-27T10:59:32.182Z,5.08
2017-05-27T11:02:02.282Z,5.60
2017-05-27T11:04:32.400Z,6.26
2017-05-27T11:07:02.349Z,5.88
2017-05-27T11:09:32.616Z,6.38
2017-05-27T11:12:02.758Z,6.34
2017-05-27T11:14:32.814Z,5.22
2017-05-27T11:17:03.164Z,5.36
2017-05-27T11:19:32.950Z,6.08
2017-05-27T11:22:03.227Z,5.48
2017-05-27T11:24:33.723Z,6.08
2017-05-27T11:27:04.056Z,6.28
2017-05-27T11:29:34.216Z,7.08
2017-05-27T11:32:04.683Z,6.20
2017-05-27T11:34:35.132Z,6.18
2017-05-27T11:37:05.234Z,6.90
2017-05-27T11:39:35.302Z,6.50
2017-05-27T11:42:05.667Z,7.02
2017-05-27T11:44:35.812Z,6.62
2017-05-27T11:47:06.090Z,5.36
2017-05-27T11:49:36.561Z,5.78
2017-05-27T11:52:06.426Z,6.62
2017-05-27T11:54:35.877Z,7.46
2017-05-27T11:57:05.940Z,7.02
2017-05-27T11:59:35.239Z,7.18
2017-05-27T12:02:05.416Z,7.08
2017-05-27T12:04:35.679Z,6.20
2017-05-27T12:07:05.182Z,7.22
2017-05-27T12:09:35.045Z,7.62
2017-05-27T12:12:05.371Z,6.40
2017-05-27T12:14:35.635Z,6.56
2017-05-27T12:17:04.946Z,7.38
2017-05-27T12:19:35.117Z,7.30
2017-05-27T12:22:05.115Z,7.64
2017-05-27T12:24:35.428Z,7.28
2017-05-27T12:27:05.832Z,6.50
2017-05-27T12:29:35.390Z,7.32
2017-05-27T12:32:05.670Z,6.88
2017-05-27T12:34:35.632Z,6.38
2017-05-27T12:37:06.025Z,6.78
2017-05-27T12:39:35.967Z,6.16
2017-05-27T12:42:07.189Z,6.60
2017-05-27T12:44:37.084Z,7.30
2017-05-27T12:47:06.848Z,5.74
2017-05-27T12:49:37.000Z,6.26
2017-05-27T12:52:07.208Z,6.42
2017-05-27T12:54:37.173Z,6.12
2017-05-27T12:57:07.128Z,6.70
2017-05-27T12:59:37.469Z,6.16
2017-05-27T13:02:07.594Z,6.38
2017-05-27T13:04:37.554Z,6.12
2017-05-27T13:07:07.567Z,6.60
2017-05-27T13:09:37.763Z,6.10
2017-05-27T13:12:06.939Z,7.28
2017-05-27T13:14:36.959Z,6.34
2017-05-27T13:17:07.076Z,6.30
2017-05-27T13:19:36.984Z,6.80
2017-05-27T13:22:07.227Z,6.16
2017-05-27T13:24:37.320Z,5.60
2017-05-27T13:27:07.727Z,6.60
2017-05-27T13:29:37.845Z,5.72
2017-05-27T13:32:08.016Z,6.00
2017-05-27T13:34:38.175Z,5.90
2017-05-27T13:37:08.212Z,5.52
2017-05-27T13:39:38.437Z,6.06
2017-05-27T13:42:09.355Z,6.00
2017-05-27T13:44:39.685Z,5.48
2017-05-27T13:47:10.031Z,5.64
2017-05-27T13:49:40.359Z,6.42
2017-05-27T13:52:10.576Z,6.48
2017-05-27T13:54:40.696Z,5.72
2017-05-27T13:57:11.034Z,5.80
2017-05-27T13:59:41.250Z,6.32
2017-05-27T14:02:11.450Z,6.20
2017-05-27T14:04:41.388Z,5.56
2017-05-27T14:07:11.594Z,5.12
2017-05-27T14:09:41.635Z,5.40
2017-05-27T14:12:12.010Z,5.32
2017-05-27T14:14:42.163Z,6.08
2017-05-27T14:17:12.479Z,5.26
2017-05-27T14:19:42.652Z,5.00
2017-05-27T14:22:12.679Z,6.48
2017-05-27T14:24:42.024Z,5.42
2017-05-27T14:27:11.994Z,5.82
2017-05-27T14:29:41.928Z,6.06
2017-05-27T14:32:12.500Z,5.36
2017-05-27T14:34:42.949Z,5.38
2017-05-27T14:37:13.295Z,5.48
2017-05-27T14:39:43.794Z,5.34
2017-05-27T14:42:14.930Z,4.22
2017-05-27T14:44:45.281Z,5.50
2017-05-27T14:47:15.361Z,4.74
2017-05-27T14:49:45.445Z,5.02
2017-05-27T14:52:15.339Z,4.76
2017-05-27T14:54:45.427Z,5.14
2017-05-27T14:57:15.723Z,5.16
2017-05-27T14:59:45.826Z,5.54
2017-05-27T15:02:16.188Z,5.02
2017-05-27T15:04:46.351Z,4.72
2017-05-27T15:07:16.747Z,4.78
2017-05-27T15:09:47.112Z,4.30
2017-05-27T15:12:17.421Z,5.10
2017-05-27T15:14:47.075Z,4.08
2017-05-27T15:17:17.211Z,3.70
2017-05-27T15:19:47.346Z,4.40
2017-05-27T15:22:17.600Z,4.44
2017-05-27T15:24:47.801Z,3.88
2017-05-27T15:27:18.086Z,3.62
2017-05-27T15:29:48.404Z,3.50
2017-05-27T15:32:18.777Z,3.50
2017-05-27T15:34:49.251Z,2.94
2017-05-27T15:37:19.449Z,3.78
2017-05-27T15:39:49.563Z,3.18
2017-05-27T15:42:19.994Z,3.38
2017-05-27T15:44:49.959Z,2.90
2017-05-27T15:47:20.094Z,2.86
2017-05-27T15:49:50.329Z,3.86
2017-05-27T15:52:20.508Z,2.68
2017-05-27T15:54:50.893Z,3.00
2017-05-27T15:57:20.432Z,3.42
2017-05-27T15:59:50.539Z,3.34
2017-05-27T16:02:20.703Z,3.72
2017-05-27T16:04:51.040Z,3.44
2017-05-27T16:07:21.383Z,3.60
2017-05-27T16:09:50.708Z,4.48
2017-05-27T16:12:20.928Z,4.28
2017-05-27T16:14:50.172Z,4.34
2017-05-27T16:17:20.217Z,3.84
2017-05-27T16:19:50.407Z,3.74
2017-05-27T16:22:20.531Z,3.92
2017-05-27T16:24:50.828Z,3.60
2017-05-27T16:27:21.137Z,3.28
2017-05-27T16:29:49.839Z,3.34
2017-05-27T16:32:20.226Z,2.90
2017-05-27T16:34:49.807Z,3.20
2017-05-27T16:37:20.036Z,2.96
2017-05-27T16:39:49.542Z,3.14
2017-05-27T16:42:21.048Z,3.36
2017-05-27T16:44:51.428Z,3.40
2017-05-27T16:47:21.428Z,2.78
2017-05-27T16:49:50.091Z,3.04
2017-05-27T16:52:20.464Z,3.28
2017-05-27T16:54:49.198Z,2.90
2017-05-27T16:57:18.468Z,3.16
2017-05-27T16:59:47.851Z,2.96
2017-05-27T17:02:17.888Z,3.10
2017-05-27T17:04:48.187Z,2.66
2017-05-27T17:07:18.444Z,3.34
2017-05-27T17:09:47.814Z,2.82
2017-05-27T17:12:18.151Z,3.10
2017-05-27T17:14:48.280Z,2.90
2017-05-27T17:17:18.721Z,2.90
2017-05-27T17:19:49.091Z,3.32
2017-05-27T17:22:19.382Z,3.28
2017-05-27T17:24:50.028Z,3.50
2017-05-27T17:27:20.590Z,2.84
2017-05-27T17:29:50.867Z,2.90
2017-05-27T17:32:21.187Z,3.34
2017-05-27T17:34:51.072Z,3.26
2017-05-27T17:37:21.120Z,2.88
2017-05-27T17:39:50.968Z,3.04
2017-05-27T17:42:22.536Z,3.48
2017-05-27T17:44:52.956Z,2.58
2017-05-27T17:47:23.064Z,2.90
2017-05-27T17:49:53.198Z,3.50
2017-05-27T17:52:24.340Z,2.86
2017-05-27T17:54:54.679Z,2.30
2017-05-27T17:57:23.436Z,2.90
2017-05-27T17:59:52.757Z,2.68
2017-05-27T18:02:22.857Z,2.70
2017-05-27T18:04:53.133Z,2.48
2017-05-27T18:07:23.318Z,2.58
2017-05-27T18:09:53.425Z,2.58
2017-05-27T18:12:23.795Z,2.90
2017-05-27T18:14:54.019Z,2.20
2017-05-27T18:17:24.002Z,2.58
2017-05-27T18:19:54.280Z,2.66
2017-05-27T18:22:24.340Z,2.40
2017-05-27T18:24:54.667Z,2.24
2017-05-27T18:27:24.647Z,3.30
2017-05-27T18:29:54.913Z,2.66
2017-05-27T18:32:28.077Z,2.72
2017-05-27T18:34:58.230Z,2.36
2017-05-27T18:37:28.518Z,3.42
2017-05-27T18:39:58.816Z,2.56
2017-05-27T18:42:30.149Z,2.90
2017-05-27T18:45:00.572Z,2.36
2017-05-27T18:47:30.839Z,2.98
2017-05-27T18:50:01.076Z,2.86
2017-05-27T18:52:30.979Z,2.40
2017-05-27T18:55:01.261Z,2.96
2017-05-27T18:57:31.427Z,2.98
2017-05-27T19:00:01.740Z,3.04
2017-05-27T19:02:31.855Z,2.62
2017-05-27T19:05:02.137Z,2.92
2017-05-27T19:07:32.439Z,2.96
2017-05-27T19:10:02.588Z,3.82
2017-05-27T19:12:32.627Z,3.08
2017-05-27T19:15:02.048Z,3.04
2017-05-27T19:17:32.040Z,2.90
2017-05-27T19:20:02.083Z,2.88
2017-05-27T19:22:31.700Z,2.64
2017-05-27T19:25:02.088Z,2.52
2017-05-27T19:27:32.113Z,2.84
2017-05-27T19:30:01.384Z,3.00
2017-05-27T19:32:31.554Z,2.36
2017-05-27T19:35:01.744Z,2.64
2017-05-27T19:37:32.132Z,2.64
2017-05-27T19:40:02.463Z,2.70
2017-05-27T19:42:33.523Z,3.00
2017-05-27T19:45:03.956Z,2.84
2017-05-27T19:47:34.208Z,2.84
2017-05-27T19:50:03.809Z,2.78
2017-05-27T19:52:34.501Z,2.68
2017-05-27T19:55:04.543Z,2.78
2017-05-27T19:57:33.782Z,2.90
2017-05-27T20:00:04.175Z,3.58
2017-05-27T20:02:34.332Z,3.62
2017-05-27T20:05:04.322Z,3.00
2017-05-27T20:07:34.615Z,2.70
2017-05-27T20:10:04.920Z,3.46
2017-05-27T20:12:34.893Z,3.72
2017-05-27T20:15:05.150Z,3.62
2017-05-27T20:17:35.551Z,3.48
2017-05-27T20:20:05.799Z,3.10
2017-05-27T20:22:35.887Z,3.24
2017-05-27T20:25:06.232Z,3.24
2017-05-27T20:27:36.417Z,3.40
2017-05-27T20:30:06.413Z,2.86
2017-05-27T20:32:35.919Z,2.62
2017-05-27T20:35:05.983Z,3.36
2017-05-27T20:37:36.142Z,3.20
2017-05-27T20:40:06.256Z,3.34
2017-05-27T20:42:37.500Z,2.72
2017-05-27T20:45:07.403Z,2.70
2017-05-27T20:47:37.507Z,3.36
2017-05-27T20:50:07.758Z,2.14
2017-05-27T20:52:38.159Z,2.34
2017-05-27T20:55:11.810Z,2.10
2017-05-27T20:57:42.103Z,1.98
2017-05-27T21:00:12.127Z,2.10
2017-05-27T21:02:42.292Z,2.24
2017-05-27T21:05:11.827Z,2.66
2017-05-27T21:07:41.842Z,2.20
2017-05-27T21:10:12.069Z,2.54
2017-05-27T21:12:42.279Z,2.32
2017-05-27T21:15:12.321Z,2.12
2017-05-27T21:17:42.596Z,1.82
2017-05-27T21:20:12.718Z,2.28
2017-05-27T21:22:41.994Z,2.38
2017-05-27T21:25:12.084Z,1.68
2017-05-27T21:27:42.180Z,1.10
2017-05-27T21:30:12.580Z,1.92
2017-05-27T21:32:42.844Z,1.96
2017-05-27T21:35:13.217Z,1.88
2017-05-27T21:37:42.961Z,1.74
2017-05-27T21:40:13.290Z,2.04
2017-05-27T21:42:44.153Z,2.48
2017-05-27T21:45:14.518Z,2.20
2017-05-27T21:47:44.670Z,1.68
2017-05-27T21:50:14.965Z,2.00
2017-05-27T21:52:45.244Z,1.90
2017-05-27T21:55:15.287Z,2.22
2017-05-27T21:57:45.662Z,2.02
2017-05-27T22:00:16.409Z,2.20
2017-05-27T22:02:46.674Z,1.84
2017-05-27T22:05:16.925Z,1.84
2017-05-27T22:07:46.988Z,1.64
2017-05-27T22:10:17.137Z,1.60
2017-05-27T22:12:46.940Z,1.32
2017-05-27T22:15:16.960Z,1.64
2017-05-27T22:17:47.202Z,1.36
2017-05-27T22:20:17.287Z,1.50
2017-05-27T22:22:47.554Z,1.60
2017-05-27T22:25:17.473Z,1.40
2017-05-27T22:27:47.457Z,1.48
2017-05-27T22:30:17.593Z,1.44
2017-05-27T22:32:47.826Z,1.50
2017-05-27T22:35:17.943Z,1.64
2017-05-27T22:37:47.980Z,1.52
2017-05-27T22:40:18.179Z,1.90
2017-05-27T22:42:48.893Z,1.28
2017-05-27T22:45:19.227Z,1.48
2017-05-27T22:47:49.529Z,1.48
2017-05-27T22:50:19.437Z,1.18
2017-05-27T22:52:49.701Z,0.96
2017-05-27T22:55:19.165Z,1.34
2017-05-27T22:57:49.506Z,1.30
2017-05-27T23:00:19.624Z,1.30
2017-05-27T23:02:49.579Z,1.68
2017-05-27T23:05:19.996Z,1.36
2017-05-27T23:07:50.101Z,1.76
2017-05-27T23:10:20.369Z,1.54
2017-05-27T23:12:50.449Z,1.40
2017-05-27T23:15:20.179Z,1.18
2017-05-27T23:17:49.479Z,1.14
2017-05-27T23:20:18.906Z,1.30
2017-05-27T23:22:47.551Z,1.20
2017-05-27T23:25:17.609Z,1.00
2017-05-27T23:27:47.790Z,1.64
2017-05-27T23:30:18.102Z,1.14
2017-05-27T23:32:49.516Z,1.00
2017-05-27T23:35:19.728Z,1.38
2017-05-27T23:37:49.936Z,1.32
2017-05-27T23:40:20.127Z,1.30
2017-05-27T23:42:51.047Z,1.20
2017-05-27T23:45:21.228Z,1.10
2017-05-27T23:47:51.491Z,1.20
2017-05-27T23:50:21.640Z,1.16
2017-05-27T23:52:51.617Z,1.36
2017-05-27T23:55:21.654Z,1.24
2017-05-27T23:57:52.105Z,1.32
